地図

経路データ

SID SEASON NUMBER BASIN SUBBASIN NAME ISO_TIME NATURE LAT LON WMO_WIND WMO_PRES WMO_AGENCY TRACK_TYPE DIST2LAND LANDFALL IFLAG USA_AGENCY USA_ATCF_ID USA_LAT USA_LON USA_RECORD USA_STATUS USA_WIND USA_PRES USA_SSHS USA_R34_NE USA_R34_SE USA_R34_SW USA_R34_NW USA_R50_NE USA_R50_SE USA_R50_SW USA_R50_NW USA_R64_NE USA_R64_SE USA_R64_SW USA_R64_NW USA_POCI USA_ROCI USA_RMW USA_EYE TOKYO_LAT TOKYO_LON TOKYO_GRADE TOKYO_WIND TOKYO_PRES TOKYO_R50_DIR TOKYO_R50_LONG TOKYO_R50_SHORT TOKYO_R30_DIR TOKYO_R30_LONG TOKYO_R30_SHORT TOKYO_LAND CMA_LAT CMA_LON CMA_CAT CMA_WIND CMA_PRES HKO_LAT HKO_LON HKO_CAT HKO_WIND HKO_PRES NEWDELHI_LAT NEWDELHI_LON NEWDELHI_GRADE NEWDELHI_WIND NEWDELHI_PRES NEWDELHI_CI NEWDELHI_DP NEWDELHI_POCI REUNION_LAT REUNION_LON REUNION_TYPE REUNION_WIND REUNION_PRES REUNION_TNUM REUNION_CI REUNION_RMW REUNION_R34_NE REUNION_R34_SE REUNION_R34_SW REUNION_R34_NW REUNION_R50_NE REUNION_R50_SE REUNION_R50_SW REUNION_R50_NW REUNION_R64_NE REUNION_R64_SE REUNION_R64_SW REUNION_R64_NW BOM_LAT BOM_LON BOM_TYPE BOM_WIND BOM_PRES BOM_TNUM BOM_CI BOM_RMW BOM_R34_NE BOM_R34_SE BOM_R34_SW BOM_R34_NW BOM_R50_NE BOM_R50_SE BOM_R50_SW BOM_R50_NW BOM_R64_NE BOM_R64_SE BOM_R64_SW BOM_R64_NW BOM_ROCI BOM_POCI BOM_EYE BOM_POS_METHOD BOM_PRES_METHOD NADI_LAT NADI_LON NADI_CAT NADI_WIND NADI_PRES WELLINGTON_LAT WELLINGTON_LON WELLINGTON_WIND WELLINGTON_PRES DS824_LAT DS824_LON DS824_STAGE DS824_WIND DS824_PRES TD9636_LAT TD9636_LON TD9636_STAGE TD9636_WIND TD9636_PRES TD9635_LAT TD9635_LON TD9635_WIND TD9635_PRES TD9635_ROCI NEUMANN_LAT NEUMANN_LON NEUMANN_CLASS NEUMANN_WIND NEUMANN_PRES MLC_LAT MLC_LON MLC_CLASS MLC_WIND MLC_PRES USA_GUST BOM_GUST BOM_GUST_PER REUNION_GUST REUNION_GUST_PER USA_SEAHGT USA_SEARAD_NE USA_SEARAD_SE USA_SEARAD_SW USA_SEARAD_NW STORM_SPEED STORM_DIR
1969290N17275 1969 103 NA CS LAURIE 1969-10-17 00:00:00 TS 17.3000 -85.1000 25 1007 hurdat_atl main 156 156 O_____________ hurdat_atl AL261969 17.3000 -85.1000 TD 25 1007 -1 4 316
1969290N17275 1969 103 NA CS LAURIE 1969-10-17 03:00:00 TS 17.4475 -85.2475 main 167 167 P_____________ AL261969 17.4475 -85.2475 TD 25 -1 4 317
1969290N17275 1969 103 NA CS LAURIE 1969-10-17 06:00:00 TS 17.6000 -85.4000 25 hurdat_atl main 190 190 O_____________ hurdat_atl AL261969 17.6000 -85.4000 TD 25 -1 4 316
1969290N17275 1969 103 NA CS LAURIE 1969-10-17 09:00:00 TS 17.7575 -85.5575 main 212 212 P_____________ AL261969 17.7575 -85.5575 TD 25 -1 4 317
1969290N17275 1969 103 NA CS LAURIE 1969-10-17 12:00:00 TS 17.9000 -85.7000 25 hurdat_atl main 223 211 O_____________ hurdat_atl AL261969 17.9000 -85.7000 TD 25 -1 3 316
1969290N17275 1969 103 NA CS LAURIE 1969-10-17 15:00:00 TS 18.0075 -85.8075 main 211 198 P_____________ AL261969 18.0075 -85.8075 TD 25 -1 3 316
1969290N17275 1969 103 NA CS LAURIE 1969-10-17 18:00:00 TS 18.1000 -85.9000 25 hurdat_atl main 198 184 O_____________ hurdat_atl AL261969 18.1000 -85.9000 TD 25 -1 2 317
1969290N17275 1969 103 NA CS LAURIE 1969-10-17 21:00:00 TS 18.1850 -85.9851 main 184 171 P_____________ AL261969 18.1850 -85.9851 TD 25 -1 3 316
1969290N17275 1969 103 NA CS LAURIE 1969-10-18 00:00:00 TS 18.3000 -86.1000 25 hurdat_atl main 171 144 O_____________ hurdat_atl AL261969 18.3000 -86.1000 TD 25 -1 4 316
1969290N17275 1969 103 NA CS LAURIE 1969-10-18 03:00:00 TS 18.4850 -86.2850 main 144 117 P_____________ AL261969 18.4850 -86.2850 TD 25 -1 6 317
1969290N17275 1969 103 NA CS LAURIE 1969-10-18 06:00:00 TS 18.7000 -86.5000 25 hurdat_atl main 117 90 O_____________ hurdat_atl AL261969 18.7000 -86.5000 TD 25 -1 5 317
1969290N17275 1969 103 NA CS LAURIE 1969-10-18 09:00:00 TS 18.8849 -86.6777 main 90 64 P_____________ AL261969 18.8849 -86.6777 TD 25 -1 6 317
1969290N17275 1969 103 NA CS LAURIE 1969-10-18 12:00:00 TS 19.1000 -86.9000 25 hurdat_atl main 64 23 O_____________ hurdat_atl AL261969 19.1000 -86.9000 TD 25 -1 7 314
1969290N17275 1969 103 NA CS LAURIE 1969-10-18 15:00:00 TS 19.3775 -87.2275 main 23 0 P_____________ AL261969 19.3775 -87.2275 TD 27 -1 9 312
1969290N17275 1969 103 NA CS LAURIE 1969-10-18 18:00:00 TS 19.7000 -87.6000 30 hurdat_atl main 10 0 O_____________ hurdat_atl AL261969 19.7000 -87.6000 TD 30 -1 10 315
1969290N17275 1969 103 NA NA LAURIE 1969-10-18 21:00:00 TS 20.0499 -87.9501 main 0 0 P_____________ AL261969 20.0499 -87.9501 TD 30 -1 10 317
1969290N17275 1969 103 NA NA LAURIE 1969-10-19 00:00:00 TS 20.4000 -88.3000 30 1005 hurdat_atl main 0 0 O_____________ hurdat_atl AL261969 20.4000 -88.3000 TD 30 1005 -1 9 315
1969290N17275 1969 103 NA NA LAURIE 1969-10-19 03:00:00 TS 20.7150 -88.6651 main 0 0 P_____________ AL261969 20.7150 -88.6651 TD 30 1003 -1 9 312
1969290N17275 1969 103 NA NA LAURIE 1969-10-19 06:00:00 TS 21.0000 -89.0000 30 hurdat_atl main 0 0 I_____________ hurdat_atl AL261969 21.0000 -89.0000 TD 30 1002 -1 8 313
1969290N17275 1969 103 NA NA LAURIE 1969-10-19 09:00:00 TS 21.2273 -89.2505 main 0 0 P_____________ AL261969 21.2273 -89.2505 TD 37 1001 0 7 317
1969290N17275 1969 103 NA GM LAURIE 1969-10-19 12:00:00 TS 21.5000 -89.5000 45 1000 hurdat_atl main 30 30 O_____________ hurdat_atl AL261969 21.5000 -89.5000 TS 45 1000 0 9 321
1969290N17275 1969 103 NA GM LAURIE 1969-10-19 15:00:00 TS 21.9201 -89.8423 main 78 78 P_____________ AL261969 21.9201 -89.8423 TS 45 0 11 324
1969290N17275 1969 103 NA GM LAURIE 1969-10-19 18:00:00 TS 22.4000 -90.2000 45 hurdat_atl main 137 137 O_____________ hurdat_atl AL261969 22.4000 -90.2000 TS 45 0 12 326
1969290N17275 1969 103 NA GM LAURIE 1969-10-19 21:00:00 TS 22.8800 -90.5448 main 199 199 P_____________ AL261969 22.8800 -90.5448 TS 47 0 11 328
1969290N17275 1969 103 NA GM LAURIE 1969-10-20 00:00:00 TS 23.3000 -90.8000 50 hurdat_atl main 251 251 O_____________ hurdat_atl AL261969 23.3000 -90.8000 TS 50 0 8 336
1969290N17275 1969 103 NA GM LAURIE 1969-10-20 03:00:00 TS 23.5799 -90.8879 main 286 286 P_____________ AL261969 23.5799 -90.8879 TS 52 0 5 350
1969290N17275 1969 103 NA GM LAURIE 1969-10-20 06:00:00 TS 23.8000 -90.9000 55 hurdat_atl main 308 308 O_____________ hurdat_atl AL261969 23.8000 -90.9000 TS 55 0 5 353
1969290N17275 1969 103 NA GM LAURIE 1969-10-20 09:00:00 TS 24.0425 -90.9500 main 332 332 P_____________ AL261969 24.0425 -90.9500 TS 60 0 5 350
1969290N17275 1969 103 NA GM LAURIE 1969-10-20 12:00:00 TS 24.3000 -91.0000 65 993 hurdat_atl main 364 364 O_____________ hurdat_atl AL261969 24.3000 -91.0000 HU 65 993 1 5 349
1969290N17275 1969 103 NA GM LAURIE 1969-10-20 15:00:00 TS 24.5700 -91.0649 main 399 399 P_____________ AL261969 24.5700 -91.0649 HU 67 988 1 6 352
1969290N17275 1969 103 NA GM LAURIE 1969-10-20 18:00:00 TS 24.9000 -91.1000 70 hurdat_atl main 431 424 I_____________ hurdat_atl AL261969 24.9000 -91.1000 HU 70 983 1 8 357
1969290N17275 1969 103 NA GM LAURIE 1969-10-20 21:00:00 TS 25.3649 -91.1024 main 413 368 P_____________ AL261969 25.3649 -91.1024 HU 70 978 1 9 5
1969290N17275 1969 103 NA GM LAURIE 1969-10-21 00:00:00 TS 25.8000 -91.0000 70 973 hurdat_atl main 368 346 O_____________ hurdat_atl AL261969 25.8000 -91.0000 HU 70 973 1 8 24
1969290N17275 1969 103 NA GM LAURIE 1969-10-21 03:00:00 TS 26.0600 -90.7526 main 335 323 P_____________ AL261969 26.0600 -90.7526 HU 72 973 1 7 53
1969290N17275 1969 103 NA GM LAURIE 1969-10-21 06:00:00 TS 26.2000 -90.4000 75 hurdat_atl main 324 312 I_____________ hurdat_atl AL261969 26.2000 -90.4000 HU 75 973 1 7 72
1969290N17275 1969 103 NA GM LAURIE 1969-10-21 09:00:00 TS 26.2801 -90.0074 main 312 305 P_____________ AL261969 26.2801 -90.0074 HU 82 973 1 7 82
1969290N17275 1969 103 NA GM LAURIE 1969-10-21 12:00:00 TS 26.3000 -89.6000 90 973 hurdat_atl main 305 302 O_____________ hurdat_atl AL261969 26.3000 -89.6000 HU 90 973 2 7 87
1969290N17275 1969 103 NA GM LAURIE 1969-10-21 15:00:00 TS 26.3149 -89.2350 main 301 301 P_____________ AL261969 26.3149 -89.2350 HU 90 974 2 6 90
1969290N17275 1969 103 NA GM LAURIE 1969-10-21 18:00:00 TS 26.3000 -88.9000 90 hurdat_atl main 302 302 I_____________ hurdat_atl AL261969 26.3000 -88.9000 HU 90 976 2 6 95
1969290N17275 1969 103 NA GM LAURIE 1969-10-21 21:00:00 TS 26.2648 -88.6076 main 305 305 P_____________ AL261969 26.2648 -88.6076 HU 87 978 2 5 101
1969290N17275 1969 103 NA GM LAURIE 1969-10-22 00:00:00 TS 26.2000 -88.3000 85 980 hurdat_atl main 322 322 O_____________ hurdat_atl AL261969 26.2000 -88.3000 HU 85 980 2 6 101
1969290N17275 1969 103 NA GM LAURIE 1969-10-22 03:00:00 TS 26.1376 -87.9077 main 344 344 P_____________ AL261969 26.1376 -87.9077 HU 82 981 1 7 106
1969290N17275 1969 103 NA GM LAURIE 1969-10-22 06:00:00 TS 26.0000 -87.5000 80 hurdat_atl main 370 370 I_____________ hurdat_atl AL261969 26.0000 -87.5000 HU 80 983 1 8 121
1969290N17275 1969 103 NA GM LAURIE 1969-10-22 09:00:00 TS 25.7075 -87.1121 main 417 414 P_____________ AL261969 25.7075 -87.1121 HU 77 985 1 9 134
1969290N17275 1969 103 NA GM LAURIE 1969-10-22 12:00:00 TS 25.4000 -86.8000 75 987 hurdat_atl main 414 384 O_____________ hurdat_atl AL261969 25.4000 -86.8000 HU 75 987 1 7 137
1969290N17275 1969 103 NA GM LAURIE 1969-10-22 15:00:00 TS 25.2349 -86.6203 main 384 369 P_____________ AL261969 25.2349 -86.6203 HU 72 988 1 4 138
1969290N17275 1969 103 NA GM LAURIE 1969-10-22 18:00:00 TS 25.1000 -86.5000 70 hurdat_atl main 369 339 I_____________ hurdat_atl AL261969 25.1000 -86.5000 HU 70 989 1 4 142
1969290N17275 1969 103 NA GM LAURIE 1969-10-22 21:00:00 TS 24.9000 -86.3349 main 339 316 P_____________ AL261969 24.9000 -86.3349 HU 67 990 1 5 146
1969290N17275 1969 103 NA GM LAURIE 1969-10-23 00:00:00 TS 24.7000 -86.2000 65 992 hurdat_atl main 316 301 O_____________ hurdat_atl AL261969 24.7000 -86.2000 HU 65 992 1 4 151
1969290N17275 1969 103 NA GM LAURIE 1969-10-23 03:00:00 TS 24.5425 -86.1200 main 293 286 P_____________ AL261969 24.5425 -86.1200 HU 62 0 3 164
1969290N17275 1969 103 NA GM LAURIE 1969-10-23 06:00:00 TS 24.4000 -86.1000 60 hurdat_atl main 286 278 O_____________ hurdat_atl AL261969 24.4000 -86.1000 TS 60 0 3 176
1969290N17275 1969 103 NA GM LAURIE 1969-10-23 09:00:00 TS 24.2499 -86.0974 main 271 271 P_____________ AL261969 24.2499 -86.0974 TS 52 0 3 196
1969290N17275 1969 103 NA GM LAURIE 1969-10-23 12:00:00 TS 24.1000 -86.2000 45 hurdat_atl main 271 269 O_____________ hurdat_atl AL261969 24.1000 -86.2000 TS 45 0 4 227
1969290N17275 1969 103 NA GM LAURIE 1969-10-23 15:00:00 TS 23.9425 -86.4551 main 271 257 P_____________ AL261969 23.9425 -86.4551 TS 42 0 6 241
1969290N17275 1969 103 NA GM LAURIE 1969-10-23 18:00:00 TS 23.8000 -86.8000 40 hurdat_atl main 257 245 O_____________ hurdat_atl AL261969 23.8000 -86.8000 TS 40 0 7 248
1969290N17275 1969 103 NA GM LAURIE 1969-10-23 21:00:00 TS 23.6851 -87.1575 main 246 235 P_____________ AL261969 23.6851 -87.1575 TS 37 0 7 253
1969290N17275 1969 103 NA GM LAURIE 1969-10-24 00:00:00 TS 23.6000 -87.5000 35 hurdat_atl main 235 223 O_____________ hurdat_atl AL261969 23.6000 -87.5000 TS 35 0 6 255
1969290N17275 1969 103 NA GM LAURIE 1969-10-24 03:00:00 TS 23.5423 -87.7574 main 223 223 P_____________ AL261969 23.5423 -87.7574 TS 35 0 5 258
1969290N17275 1969 103 NA GM LAURIE 1969-10-24 06:00:00 TS 23.5000 -88.0000 35 hurdat_atl main 223 223 O_____________ hurdat_atl AL261969 23.5000 -88.0000 TS 35 0 5 260
1969290N17275 1969 103 NA GM LAURIE 1969-10-24 09:00:00 TS 23.4573 -88.2699 main 223 212 P_____________ AL261969 23.4573 -88.2699 TS 35 0 6 260
1969290N17275 1969 103 NA GM LAURIE 1969-10-24 12:00:00 TS 23.4000 -88.6000 35 1001 hurdat_atl main 212 202 O_____________ hurdat_atl AL261969 23.4000 -88.6000 TS 35 1001 0 7 257
1969290N17275 1969 103 NA GM LAURIE 1969-10-24 15:00:00 TS 23.3000 -89.0276 main 205 203 P_____________ AL261969 23.3000 -89.0276 TS 32 -1 9 256
1969290N17275 1969 103 NA GM LAURIE 1969-10-24 18:00:00 TS 23.2000 -89.5000 30 hurdat_atl main 211 211 O_____________ hurdat_atl AL261969 23.2000 -89.5000 TD 30 -1 9 260
1969290N17275 1969 103 NA GM LAURIE 1969-10-24 21:00:00 TS 23.1500 -89.9648 main 223 212 P_____________ AL261969 23.1500 -89.9648 TD 30 -1 8 263
1969290N17275 1969 103 NA GM LAURIE 1969-10-25 00:00:00 TS 23.1000 -90.4000 30 hurdat_atl main 218 216 O_____________ hurdat_atl AL261969 23.1000 -90.4000 TD 30 -1 8 261
1969290N17275 1969 103 NA GM LAURIE 1969-10-25 03:00:00 TS 23.0299 -90.7724 main 218 213 P_____________ AL261969 23.0299 -90.7724 TD 30 -1 7 253
1969290N17275 1969 103 NA GM LAURIE 1969-10-25 06:00:00 TS 22.9000 -91.1000 30 hurdat_atl main 217 206 O_____________ hurdat_atl AL261969 22.9000 -91.1000 TD 30 -1 7 238
1969290N17275 1969 103 NA GM LAURIE 1969-10-25 09:00:00 TS 22.6649 -91.4151 main 211 199 P_____________ AL261969 22.6649 -91.4151 TD 27 -1 7 228
1969290N17275 1969 103 NA GM LAURIE 1969-10-25 12:00:00 TS 22.4000 -91.7000 25 1007 hurdat_atl main 204 204 O_____________ hurdat_atl AL261969 22.4000 -91.7000 TD 25 1007 -1 7 228
1969290N17275 1969 103 NA GM LAURIE 1969-10-25 15:00:00 TS 22.2075 -91.9648 main 214 208 P_____________ AL261969 22.2075 -91.9648 TD 25 -1 6 229
1969290N17275 1969 103 NA GM LAURIE 1969-10-25 18:00:00 TS 22.0000 -92.2000 25 hurdat_atl main 220 220 O_____________ hurdat_atl AL261969 22.0000 -92.2000 TD 25 -1 6 220
1969290N17275 1969 103 NA GM LAURIE 1969-10-25 21:00:00 TS 21.7150 -92.4150 main 227 227 P_____________ AL261969 21.7150 -92.4150 TD 27 -1 7 212
1969290N17275 1969 103 NA GM LAURIE 1969-10-26 00:00:00 TS 21.4000 -92.6000 30 hurdat_atl main 237 235 O_____________ hurdat_atl AL261969 21.4000 -92.6000 TD 30 -1 7 209
1969290N17275 1969 103 NA GM LAURIE 1969-10-26 03:00:00 TS 21.1075 -92.7725 main 248 245 P_____________ AL261969 21.1075 -92.7725 TD 30 -1 7 205
1969290N17275 1969 103 NA GM LAURIE 1969-10-26 06:00:00 TS 20.8000 -92.9000 30 hurdat_atl main 246 214 O_____________ hurdat_atl AL261969 20.8000 -92.9000 TD 30 -1 7 196
1969290N17275 1969 103 NA GM LAURIE 1969-10-26 09:00:00 TS 20.4575 -92.9725 main 214 170 P_____________ AL261969 20.4575 -92.9725 TD 30 -1 7 188
1969290N17275 1969 103 NA GM LAURIE 1969-10-26 12:00:00 TS 20.1000 -93.0000 30 hurdat_atl main 170 137 O_____________ hurdat_atl AL261969 20.1000 -93.0000 TD 30 -1 7 182
1969290N17275 1969 103 NA GM LAURIE 1969-10-26 15:00:00 TS 19.7500 -92.9999 main 137 94 P_____________ AL261969 19.7500 -92.9999 TD 30 -1 7 0
1969290N17275 1969 103 NA GM LAURIE 1969-10-26 18:00:00 TS 19.4000 -93.0000 30 1006 hurdat_atl main 94 64 O_____________ hurdat_atl AL261969 19.4000 -93.0000 TD 30 1006 -1 7 183
1969290N17275 1969 103 NA GM LAURIE 1969-10-26 21:00:00 TS 19.0500 -93.0501 main 70 35 P_____________ AL261969 19.0500 -93.0501 TD 27 -1 7 188
1969290N17275 1969 103 NA GM LAURIE 1969-10-27 00:00:00 TS 18.7000 -93.1000 25 hurdat_atl main 35 10 O_____________ hurdat_atl AL261969 18.7000 -93.1000 TD 25 -1 7 185
1969290N17275 1969 103 NA GM LAURIE 1969-10-27 03:00:00 TS 18.3500 -93.1124 main 10 0 P_____________ AL261969 18.3500 -93.1124 TD 22 -1 7 0
1969290N17275 1969 103 NA NA LAURIE 1969-10-27 06:00:00 TS 18.0000 -93.1000 20 hurdat_atl main 0 O_____________ hurdat_atl AL261969 18.0000 -93.1000 TD 20 -1 7 0

IBTrACS Databaseについて

本データベースは、米国NOAAが公開する1842年以降の世界の熱帯低気圧のベストトラックデータアーカイブInternational Best Track Archive for Climate Stewardship (IBTrACS)を、ウェブで閲覧しやすい形式に変換したものです。

最終更新日:2021-12-06